Time;durP1;ratioP1;P1;durP2;ratioP2;P2;SDS_P1;SDS_P2;PMS_P1;PMS_P2;Temp;Humidity;BMP_temperature;BMP_pressure;BME280_temperature;BME280_humidity;BME280_pressure;Samples;Min_cycle;Max_cycle;Signal;HPM_P1;HPM_P2
2022/10/14 00:00:12;;;;;;;83.88;21.98;;;12.10;99.90;;;;;;5137564;27;20039;-79
2022/10/14 00:02:38;;;;;;;46.22;19.83;;;12.10;99.90;;;;;;5137998;27;20057;-79
2022/10/14 00:05:04;;;;;;;62.78;21.20;;;12.10;99.90;;;;;;5099416;27;20406;-80
2022/10/14 00:07:29;;;;;;;40.13;20.52;;;12.10;99.90;;;;;;5131468;27;20031;-79
2022/10/14 00:09:55;;;;;;;40.90;21.45;;;12.10;99.90;;;;;;5100712;27;20039;-79
2022/10/14 00:12:21;;;;;;;50.85;23.58;;;12.10;99.90;;;;;;5130562;27;20122;-79
2022/10/14 00:14:47;;;;;;;46.30;21.90;;;12.10;99.90;;;;;;5104458;27;20046;-79
2022/10/14 00:17:12;;;;;;;53.75;23.67;;;12.10;99.90;;;;;;5138641;27;20042;-79
2022/10/14 00:19:38;;;;;;;55.80;24.60;;;12.20;99.90;;;;;;5105317;27;20042;-79
2022/10/14 00:22:04;;;;;;;49.45;24.88;;;12.20;99.90;;;;;;5133062;27;20035;-78
2022/10/14 00:24:29;;;;;;;52.15;25.38;;;12.20;99.90;;;;;;5150959;27;20569;-79
2022/10/14 00:26:55;;;;;;;54.47;27.55;;;12.20;99.90;;;;;;5126616;27;20466;-80
2022/10/14 00:29:21;;;;;;;52.65;27.80;;;12.20;99.90;;;;;;5120868;27;20198;-79
2022/10/14 00:31:46;;;;;;;57.08;27.80;;;12.20;99.90;;;;;;5138329;27;20034;-80
2022/10/14 00:34:14;;;;;;;80.97;27.73;;;12.20;99.90;;;;;;5120284;27;20104;-79
2022/10/14 00:36:41;;;;;;;48.42;23.02;;;12.20;99.90;;;;;;5137899;27;20083;-79
2022/10/14 00:39:07;;;;;;;66.18;22.48;;;12.20;99.90;;;;;;5138004;27;20043;-79
2022/10/14 00:41:34;;;;;;;63.28;23.10;;;12.10;99.90;;;;;;5138066;27;20049;-79
2022/10/14 00:44:27;;;;;;;45.80;21.50;;;12.10;99.90;;;;;;5121100;27;20035;-79
2022/10/14 00:46:54;;;;;;;138.32;25.20;;;12.10;99.90;;;;;;5136655;27;20444;-79
2022/10/14 00:49:26;;;;;;;186.20;25.77;;;12.10;99.90;;;;;;5155241;27;20590;-79
2022/10/14 00:51:57;;;;;;;72.90;23.15;;;12.00;99.90;;;;;;5136520;27;20026;-79
2022/10/14 00:54:28;;;;;;;71.30;24.27;;;12.00;99.90;;;;;;5154722;27;20046;-79
2022/10/14 00:56:54;;;;;;;152.15;26.52;;;12.00;99.90;;;;;;5153621;27;20104;-79
2022/10/14 00:59:20;;;;;;;163.73;27.45;;;12.00;99.90;;;;;;5134425;27;20491;-79
2022/10/14 01:01:46;;;;;;;74.82;25.45;;;12.10;99.90;;;;;;5136784;27;20038;-79
2022/10/14 01:04:12;;;;;;;101.78;25.27;;;11.90;99.90;;;;;;5136774;27;20127;-79
2022/10/14 01:06:40;;;;;;;98.68;25.20;;;11.90;99.90;;;;;;5137102;27;20117;-79
2022/10/14 01:09:09;;;;;;;214.68;27.88;;;12.00;99.90;;;;;;5137026;27;20042;-79
2022/10/14 01:12:05;;;;;;;149.25;26.90;;;11.90;99.90;;;;;;5152811;27;20501;-79
2022/10/14 01:14:58;;;;;;;95.95;24.77;;;11.90;99.90;;;;;;5122503;27;20066;-79
2022/10/14 01:17:45;;;;;;;59.53;23.83;;;11.90;99.90;;;;;;5146127;27;20046;-79
2022/10/14 01:20:54;;;;;;;98.65;24.70;;;11.90;99.90;;;;;;5135929;27;20030;-79
2022/10/14 01:23:29;;;;;;;109.05;24.60;;;11.90;99.90;;;;;;5147940;27;20042;-79
2022/10/14 01:26:10;;;;;;;232.05;27.55;;;11.80;99.90;;;;;;5153508;27;20031;-79
2022/10/14 01:28:48;;;;;;;110.20;24.42;;;11.90;99.90;;;;;;5135826;27;20038;-79
2022/10/14 01:31:19;;;;;;;166.30;25.17;;;11.80;99.90;;;;;;5152224;27;20035;-79
2022/10/14 01:33:48;;;;;;;74.88;22.77;;;11.80;99.90;;;;;;5136787;27;20559;-79
2022/10/14 01:36:16;;;;;;;85.95;25.08;;;11.80;99.90;;;;;;5131351;27;20035;-79
2022/10/14 01:39:07;;;;;;;326.10;31.42;;;11.80;99.90;;;;;;5125677;27;20121;-79
2022/10/14 01:41:37;;;;;;;154.85;25.05;;;11.80;99.90;;;;;;5124395;27;20398;-79
2022/10/14 01:44:08;;;;;;;121.38;25.90;;;11.70;99.90;;;;;;5133979;27;20038;-79
2022/10/14 01:46:38;;;;;;;214.52;27.63;;;11.70;99.90;;;;;;5152600;27;20046;-80
2022/10/14 01:49:10;;;;;;;177.73;24.58;;;11.70;99.90;;;;;;5134968;27;20046;-79
2022/10/14 01:51:46;;;;;;;154.02;24.35;;;11.70;99.90;;;;;;5154140;27;20432;-79
2022/10/14 01:54:19;;;;;;;193.45;24.27;;;11.60;99.90;;;;;;5136374;27;20046;-79
2022/10/14 01:56:46;;;;;;;327.33;27.08;;;11.60;99.90;;;;;;5136192;27;20042;-79
2022/10/14 01:59:14;;;;;;;158.95;23.75;;;11.50;99.90;;;;;;5152995;27;20623;-80
2022/10/14 02:01:39;;;;;;;157.20;19.45;;;11.50;99.90;;;;;;5122464;28;20042;-80
2022/10/14 02:04:22;;;;;;;172.55;19.75;;;11.50;99.90;;;;;;5132989;27;20137;-79
2022/10/14 02:07:13;;;;;;;273.98;22.55;;;11.40;99.90;;;;;;5120030;27;20414;-79
2022/10/14 02:10:07;;;;;;;101.45;14.45;;;11.40;99.90;;;;;;5128050;27;20054;-79
2022/10/14 02:12:54;;;;;;;73.90;15.52;;;11.30;99.90;;;;;;5153957;27;20070;-79
2022/10/14 02:15:51;;;;;;;100.60;15.48;;;11.20;99.90;;;;;;5139650;27;20030;-79
2022/10/14 02:18:28;;;;;;;178.30;17.77;;;11.20;99.90;;;;;;5138468;27;20062;-79
2022/10/14 02:21:23;;;;;;;97.82;15.60;;;11.10;99.90;;;;;;5156609;27;20121;-79
2022/10/14 02:23:56;;;;;;;157.20;17.40;;;11.10;99.90;;;;;;5138769;27;20031;-79
2022/10/14 02:26:23;;;;;;;140.30;16.60;;;11.00;99.90;;;;;;5156542;27;20034;-79
2022/10/14 02:28:50;;;;;;;40.83;14.30;;;11.00;99.90;;;;;;5103469;27;20119;-79
2022/10/14 02:31:17;;;;;;;122.80;16.65;;;11.00;99.90;;;;;;5139724;27;20041;-79
2022/10/14 02:33:48;;;;;;;140.95;16.13;;;11.00;99.90;;;;;;5139100;27;20095;-79
2022/10/14 02:36:16;;;;;;;121.78;16.00;;;10.90;99.90;;;;;;5156260;27;20031;-79
2022/10/14 02:38:43;;;;;;;137.02;17.08;;;11.00;99.90;;;;;;5139975;27;20039;-79
2022/10/14 02:41:13;;;;;;;93.85;15.65;;;10.90;99.90;;;;;;5122146;27;20527;-79
2022/10/14 02:43:39;;;;;;;107.97;14.98;;;10.90;99.90;;;;;;5156517;27;20127;-80
2022/10/14 02:46:05;;;;;;;95.72;15.55;;;10.80;99.90;;;;;;5122413;27;20034;-79
2022/10/14 02:48:31;;;;;;;97.43;16.23;;;10.80;99.90;;;;;;5156205;27;20034;-79
2022/10/14 02:50:57;;;;;;;67.70;14.82;;;11.10;99.90;;;;;;5138765;27;20039;-79
2022/10/14 02:53:23;;;;;;;145.02;17.33;;;10.90;99.90;;;;;;5105223;27;20461;-79
2022/10/14 02:55:48;;;;;;;86.03;15.57;;;10.90;99.90;;;;;;5121487;27;20049;-79
2022/10/14 02:58:14;;;;;;;56.78;14.23;;;10.80;99.90;;;;;;5136381;27;20127;-79
2022/10/14 03:00:40;;;;;;;40.63;14.13;;;10.80;99.90;;;;;;5131057;27;20397;-79
2022/10/14 03:03:06;;;;;;;52.55;13.60;;;10.80;99.90;;;;;;5121702;27;20122;-80
2022/10/14 03:05:31;;;;;;;92.50;15.48;;;10.80;99.90;;;;;;5138861;27;20046;-79
2022/10/14 03:07:57;;;;;;;46.28;13.13;;;10.90;99.90;;;;;;5121542;27;20117;-80
2022/10/14 03:10:23;;;;;;;89.93;14.43;;;10.90;99.90;;;;;;5156437;27;20111;-80
2022/10/14 03:12:49;;;;;;;46.35;11.45;;;10.90;99.90;;;;;;5100535;27;20035;-79
2022/10/14 03:15:15;;;;;;;56.35;11.63;;;10.80;99.90;;;;;;5117651;27;20038;-79
2022/10/14 03:17:41;;;;;;;81.47;13.35;;;10.80;99.90;;;;;;5104498;27;20130;-80
2022/10/14 03:20:07;;;;;;;66.97;12.10;;;10.90;99.90;;;;;;5115137;27;20066;-79
2022/10/14 03:22:32;;;;;;;72.85;12.02;;;10.80;99.90;;;;;;5138757;27;20125;-79
2022/10/14 03:24:58;;;;;;;91.78;13.57;;;10.80;99.90;;;;;;5121252;27;20538;-79
2022/10/14 03:27:24;;;;;;;74.90;13.90;;;10.80;99.90;;;;;;5131963;27;20062;-80
2022/10/14 03:29:50;;;;;;;78.45;13.98;;;10.80;99.90;;;;;;5112237;27;20046;-79
2022/10/14 03:32:16;;;;;;;90.88;15.38;;;10.80;99.90;;;;;;5138421;27;20086;-80
2022/10/14 03:34:42;;;;;;;80.57;14.07;;;10.80;99.90;;;;;;5138029;27;20042;-79
2022/10/14 03:37:07;;;;;;;73.43;14.48;;;10.80;99.90;;;;;;5120321;27;20487;-79
2022/10/14 03:39:33;;;;;;;132.00;17.27;;;10.80;99.90;;;;;;5138884;27;20042;-80
2022/10/14 03:41:59;;;;;;;57.85;14.63;;;10.80;99.90;;;;;;5103823;27;20070;-79
2022/10/14 03:44:25;;;;;;;139.00;17.67;;;10.80;99.90;;;;;;5152248;27;20095;-79
2022/10/14 03:46:50;;;;;;;121.47;17.98;;;10.70;99.90;;;;;;5120667;27;20041;-79
2022/10/14 03:49:16;;;;;;;131.07;16.95;;;10.70;99.90;;;;;;5118825;27;20103;-79
2022/10/14 03:51:42;;;;;;;105.75;17.20;;;10.70;99.90;;;;;;5104457;27;20035;-80
2022/10/14 03:54:08;;;;;;;119.85;17.45;;;10.70;99.90;;;;;;5120882;27;20102;-79
2022/10/14 03:56:33;;;;;;;73.80;16.75;;;10.70;99.90;;;;;;5138145;27;20038;-79
2022/10/14 03:58:59;;;;;;;60.58;15.55;;;10.70;99.90;;;;;;5116435;27;20419;-80
2022/10/14 04:01:25;;;;;;;55.22;16.23;;;10.70;99.90;;;;;;5136375;27;20031;-79
2022/10/14 04:03:51;;;;;;;57.35;15.60;;;10.70;99.90;;;;;;5137730;27;20051;-79
2022/10/14 04:06:16;;;;;;;54.05;15.55;;;10.70;99.90;;;;;;5100914;27;20114;-80
2022/10/14 04:08:43;;;;;;;30.80;14.90;;;10.70;99.90;;;;;;5137714;27;20555;-79
2022/10/14 04:11:09;;;;;;;33.13;13.70;;;10.70;99.90;;;;;;5120557;27;21594;-79
2022/10/14 04:13:35;;;;;;;40.38;15.90;;;10.70;99.90;;;;;;5119676;27;20099;-80
2022/10/14 04:16:06;;;;;;;50.88;15.48;;;11.00;99.90;;;;;;5137892;27;20522;-80
2022/10/14 04:18:34;;;;;;;33.97;15.07;;;10.80;99.90;;;;;;5121177;27;20092;-79
2022/10/14 04:21:02;;;;;;;42.13;14.43;;;10.80;99.90;;;;;;5155502;27;20115;-80
2022/10/14 04:23:27;;;;;;;33.55;15.50;;;10.70;99.90;;;;;;5120469;27;20041;-80
2022/10/14 04:25:53;;;;;;;40.58;15.25;;;10.90;99.90;;;;;;5120514;27;20042;-80
2022/10/14 04:28:19;;;;;;;44.03;16.38;;;10.80;99.90;;;;;;5137879;27;20114;-80
2022/10/14 04:30:45;;;;;;;50.30;16.55;;;10.80;99.90;;;;;;5136712;27;20030;-80
2022/10/14 04:33:10;;;;;;;34.42;15.63;;;10.70;99.90;;;;;;5119023;27;20049;-79
2022/10/14 04:35:36;;;;;;;27.88;15.23;;;10.70;99.90;;;;;;5114498;27;20138;-80
2022/10/14 04:38:02;;;;;;;30.90;15.85;;;10.80;99.90;;;;;;5116859;27;20043;-79
2022/10/14 04:40:27;;;;;;;36.78;16.05;;;10.70;99.90;;;;;;5150269;27;20027;-80
2022/10/14 04:42:55;;;;;;;34.90;15.40;;;11.10;99.90;;;;;;5113278;27;20052;-80
2022/10/14 04:45:21;;;;;;;44.35;17.20;;;11.30;99.90;;;;;;5154557;27;20046;-80
2022/10/14 04:47:46;;;;;;;32.20;16.10;;;10.70;99.90;;;;;;5121047;27;20041;-80
2022/10/14 04:50:12;;;;;;;41.33;17.42;;;10.80;99.90;;;;;;5138246;27;20412;-80
2022/10/14 04:52:38;;;;;;;56.65;18.65;;;10.80;99.90;;;;;;5103711;27;20035;-79
2022/10/14 04:55:03;;;;;;;39.67;16.50;;;10.80;99.90;;;;;;5123720;27;20039;-80
2022/10/14 04:57:29;;;;;;;62.58;17.70;;;10.80;99.90;;;;;;5142337;27;20050;-79
2022/10/14 04:59:55;;;;;;;61.15;16.83;;;10.80;99.90;;;;;;5119373;27;20034;-80
2022/10/14 05:02:20;;;;;;;57.95;17.55;;;10.80;99.90;;;;;;5104650;27;20071;-80
2022/10/14 05:04:46;;;;;;;48.97;17.98;;;10.80;99.90;;;;;;5135532;27;20050;-79
2022/10/14 05:07:12;;;;;;;164.50;21.65;;;10.80;99.90;;;;;;5135125;27;20087;-80
2022/10/14 05:09:37;;;;;;;114.22;20.00;;;10.80;99.90;;;;;;5116017;27;20035;-79
2022/10/14 05:12:03;;;;;;;134.77;21.42;;;10.80;99.90;;;;;;5115970;27;20125;-79
2022/10/14 05:14:29;;;;;;;90.40;18.58;;;10.80;99.90;;;;;;5154713;27;20049;-79
2022/10/14 05:16:55;;;;;;;89.88;18.95;;;10.80;99.90;;;;;;5120142;27;20105;-79
2022/10/14 05:19:20;;;;;;;130.45;20.10;;;10.80;99.90;;;;;;5134396;27;21604;-79
2022/10/14 05:21:46;;;;;;;110.82;20.30;;;10.80;99.90;;;;;;5097838;27;20042;-81
2022/10/14 05:24:12;;;;;;;121.28;22.40;;;10.80;99.90;;;;;;5116331;27;20178;-79
2022/10/14 05:26:37;;;;;;;104.07;20.58;;;10.80;99.90;;;;;;5154687;27;20034;-79
2022/10/14 05:29:03;;;;;;;141.90;22.42;;;10.80;99.90;;;;;;5116173;27;20476;-79
2022/10/14 05:31:29;;;;;;;78.18;19.02;;;10.80;99.90;;;;;;5111061;27;20042;-79
2022/10/14 05:33:55;;;;;;;172.93;22.45;;;10.80;99.90;;;;;;5137080;27;20039;-79
2022/10/14 05:36:20;;;;;;;160.50;23.35;;;11.40;99.90;;;;;;5153318;27;20398;-79
2022/10/14 05:38:46;;;;;;;204.20;24.27;;;10.90;99.90;;;;;;5119731;27;20085;-79
2022/10/14 05:41:12;;;;;;;128.48;22.98;;;10.90;99.90;;;;;;5154433;27;20123;-79
2022/10/14 05:43:37;;;;;;;147.68;24.45;;;10.90;99.90;;;;;;5119963;27;20043;-79
2022/10/14 05:46:03;;;;;;;99.78;21.63;;;10.90;99.90;;;;;;5103260;27;20042;-79
2022/10/14 05:48:29;;;;;;;191.77;25.73;;;10.90;99.90;;;;;;5104387;27;20367;-79
2022/10/14 05:50:55;;;;;;;106.85;22.00;;;10.90;99.90;;;;;;5123811;27;20027;-80
2022/10/14 05:53:20;;;;;;;63.58;21.83;;;11.00;99.90;;;;;;5124302;27;20121;-79
2022/10/14 05:55:46;;;;;;;167.18;23.60;;;10.90;99.90;;;;;;5123711;27;20101;-79
2022/10/14 05:58:12;;;;;;;74.28;21.02;;;10.90;99.90;;;;;;5104590;27;20535;-80
2022/10/14 06:00:37;;;;;;;84.07;22.05;;;10.90;99.90;;;;;;5121825;27;20038;-80
2022/10/14 06:03:03;;;;;;;113.30;23.02;;;10.90;99.90;;;;;;5156981;27;20046;-80
2022/10/14 06:05:29;;;;;;;78.93;22.02;;;10.90;99.90;;;;;;5122892;27;20163;-80
2022/10/14 06:07:54;;;;;;;100.28;22.77;;;10.90;99.90;;;;;;5140779;27;20039;-80
2022/10/14 06:10:21;;;;;;;71.18;21.70;;;11.00;99.90;;;;;;5157026;27;20039;-80
2022/10/14 06:12:47;;;;;;;55.28;20.48;;;11.00;99.90;;;;;;5154248;27;20122;-78
2022/10/14 06:15:12;;;;;;;124.20;23.15;;;11.00;99.90;;;;;;5156863;27;20077;-78
2022/10/14 06:17:38;;;;;;;71.25;21.38;;;11.00;99.90;;;;;;5128836;27;20046;-79
2022/10/14 06:20:04;;;;;;;102.68;22.85;;;11.00;99.90;;;;;;5130073;27;20066;-78
2022/10/14 06:22:30;;;;;;;74.43;21.52;;;11.00;99.90;;;;;;5103543;27;20042;-82
2022/10/14 06:24:55;;;;;;;85.30;21.30;;;11.10;99.90;;;;;;5126762;27;20035;-82
2022/10/14 06:27:21;;;;;;;168.15;25.58;;;11.00;99.90;;;;;;5139920;27;20050;-80
2022/10/14 06:29:47;;;;;;;113.63;23.27;;;11.10;99.90;;;;;;5119853;27;20039;-80
2022/10/14 06:32:12;;;;;;;83.65;23.17;;;11.10;99.90;;;;;;5123127;27;20479;-80
2022/10/14 06:34:38;;;;;;;73.63;22.80;;;11.10;99.90;;;;;;5157859;27;20057;-81
2022/10/14 06:37:04;;;;;;;80.05;23.35;;;11.10;99.90;;;;;;5123743;27;20125;-82
2022/10/14 06:39:29;;;;;;;47.85;22.00;;;11.10;99.90;;;;;;5141411;27;20039;-81
2022/10/14 06:41:55;;;;;;;49.53;21.98;;;11.10;99.90;;;;;;5138233;27;20127;-80
2022/10/14 06:44:21;;;;;;;57.45;21.63;;;11.20;99.90;;;;;;5123182;27;20031;-79
2022/10/14 06:46:46;;;;;;;61.20;23.55;;;11.20;99.90;;;;;;5157737;27;20466;-80
2022/10/14 06:49:12;;;;;;;50.15;21.67;;;11.20;99.90;;;;;;5140234;27;20382;-80
2022/10/14 06:51:39;;;;;;;47.38;21.42;;;11.20;99.90;;;;;;5158044;27;20038;-80
2022/10/14 06:54:06;;;;;;;53.42;21.80;;;11.30;99.90;;;;;;5124220;27;20098;-80
2022/10/14 06:56:33;;;;;;;57.20;22.27;;;11.30;99.90;;;;;;5157112;27;20498;-80
2022/10/14 06:58:59;;;;;;;56.35;22.88;;;11.30;99.90;;;;;;5139809;27;20444;-80
2022/10/14 07:01:25;;;;;;;58.13;21.95;;;11.30;99.90;;;;;;5140314;27;20122;-79
2022/10/14 07:03:51;;;;;;;54.00;23.30;;;11.30;99.90;;;;;;5122793;27;20477;-80
2022/10/14 07:06:18;;;;;;;54.63;22.77;;;11.30;99.90;;;;;;5123196;27;20074;-80
2022/10/14 07:08:43;;;;;;;50.42;21.17;;;11.30;99.90;;;;;;5157011;27;20034;-79
2022/10/14 07:11:09;;;;;;;48.08;22.13;;;11.30;99.90;;;;;;5105496;27;20041;-80
2022/10/14 07:13:36;;;;;;;52.08;23.30;;;11.30;99.90;;;;;;5138992;27;20039;-80
2022/10/14 07:16:03;;;;;;;54.30;22.33;;;11.40;99.90;;;;;;5123267;27;20401;-81
2022/10/14 07:18:29;;;;;;;47.75;22.30;;;11.40;99.90;;;;;;5123079;27;20078;-80
2022/10/14 07:20:55;;;;;;;48.72;23.98;;;11.40;99.90;;;;;;5139274;27;20038;-80
2022/10/14 07:23:21;;;;;;;57.75;25.35;;;11.40;99.90;;;;;;5139191;27;20042;-80
2022/10/14 07:25:46;;;;;;;52.63;23.50;;;11.50;99.90;;;;;;5156910;27;20364;-81
2022/10/14 07:28:12;;;;;;;54.03;25.63;;;11.50;99.90;;;;;;5122144;27;20035;-80
2022/10/14 07:30:38;;;;;;;48.80;24.70;;;11.50;99.90;;;;;;5120803;27;20397;-81
2022/10/14 07:33:04;;;;;;;56.72;25.02;;;11.50;99.90;;;;;;5156731;27;20038;-80
2022/10/14 07:35:29;;;;;;;55.92;26.38;;;11.50;99.90;;;;;;5140205;27;20126;-80
2022/10/14 07:37:58;;;;;;;64.57;27.63;;;11.50;99.90;;;;;;5122426;27;20038;-80
2022/10/14 07:40:23;;;;;;;59.53;28.80;;;11.60;99.90;;;;;;5138232;27;20035;-80
2022/10/14 07:42:49;;;;;;;59.88;27.75;;;11.60;99.90;;;;;;5139259;27;20050;-80
2022/10/14 07:45:17;;;;;;;59.20;28.13;;;11.60;99.90;;;;;;5139503;27;20038;-80
2022/10/14 07:47:44;;;;;;;65.60;28.27;;;11.60;99.90;;;;;;5139265;27;20491;-80
2022/10/14 07:50:10;;;;;;;67.88;27.58;;;11.50;99.90;;;;;;5112668;27;20074;-80
2022/10/14 07:52:37;;;;;;;63.20;29.02;;;11.60;99.90;;;;;;5119513;27;20500;-81
2022/10/14 07:55:03;;;;;;;66.63;28.50;;;11.70;99.90;;;;;;5118624;27;20042;-80
2022/10/14 07:57:29;;;;;;;65.20;30.13;;;11.70;99.90;;;;;;5119041;27;20391;-80
2022/10/14 07:59:55;;;;;;;62.70;29.17;;;11.70;99.90;;;;;;5101588;27;20046;-80
2022/10/14 08:02:22;;;;;;;63.85;29.27;;;11.70;99.90;;;;;;5127402;27;20043;-80
2022/10/14 08:04:51;;;;;;;71.82;29.95;;;11.80;99.90;;;;;;5141686;27;20494;-80
2022/10/14 08:07:17;;;;;;;68.38;30.67;;;11.80;99.90;;;;;;5156025;27;20118;-80
2022/10/14 08:09:43;;;;;;;69.32;30.08;;;11.80;99.90;;;;;;5121835;27;20103;-81
2022/10/14 08:12:09;;;;;;;72.15;31.13;;;11.80;99.90;;;;;;5138704;27;20035;-80
2022/10/14 08:14:35;;;;;;;73.75;30.25;;;11.80;99.90;;;;;;5138519;27;20424;-80
2022/10/14 08:17:01;;;;;;;65.57;29.80;;;11.80;99.90;;;;;;5105149;27;20058;-80
2022/10/14 08:19:26;;;;;;;73.70;31.20;;;11.80;99.90;;;;;;5117654;27;20035;-79
2022/10/14 08:21:52;;;;;;;67.72;30.17;;;11.80;99.90;;;;;;5108471;27;20094;-80
2022/10/14 08:24:18;;;;;;;81.75;30.88;;;11.90;99.90;;;;;;5136337;27;20121;-80
2022/10/14 08:26:55;;;;;;;75.50;29.77;;;11.90;99.90;;;;;;5138370;27;20117;-79
2022/10/14 08:29:21;;;;;;;75.60;30.63;;;11.90;99.90;;;;;;5137737;27;20034;-79
2022/10/14 08:31:48;;;;;;;83.43;31.05;;;11.90;99.90;;;;;;5156109;27;20121;-80
2022/10/14 08:34:13;;;;;;;80.28;32.35;;;11.90;99.90;;;;;;5120668;27;20064;-80
2022/10/14 08:36:40;;;;;;;77.00;30.05;;;12.00;99.90;;;;;;5134855;27;20421;-80
2022/10/14 08:39:06;;;;;;;76.75;30.63;;;12.00;99.90;;;;;;5138807;27;20046;-80
2022/10/14 08:41:41;;;;;;;81.88;31.23;;;12.00;99.90;;;;;;5117326;27;20073;-80
2022/10/14 08:44:26;;;;;;;77.00;30.73;;;12.00;99.90;;;;;;5133889;27;20035;-80
2022/10/14 08:46:56;;;;;;;70.78;27.75;;;12.00;99.90;;;;;;5129558;27;20504;-80
2022/10/14 08:49:24;;;;;;;72.53;27.08;;;12.00;99.90;;;;;;5133494;27;20383;-80
2022/10/14 08:52:12;;;;;;;71.40;26.90;;;12.10;99.90;;;;;;5136152;27;20089;-81
2022/10/14 08:54:49;;;;;;;65.20;27.00;;;12.10;99.90;;;;;;5151715;27;20091;-79
2022/10/14 08:57:23;;;;;;;64.10;26.02;;;12.20;99.90;;;;;;5152381;27;20117;-80
2022/10/14 08:59:49;;;;;;;73.82;25.40;;;12.10;99.90;;;;;;5134838;27;20034;-80
2022/10/14 09:02:36;;;;;;;70.68;24.95;;;12.20;99.90;;;;;;5153189;27;20167;-80
2022/10/14 09:05:03;;;;;;;68.53;24.23;;;12.20;99.90;;;;;;5136276;27;20053;-80
2022/10/14 09:07:31;;;;;;;58.50;24.80;;;12.20;99.90;;;;;;5134923;27;20031;-80
2022/10/14 09:10:09;;;;;;;71.22;24.30;;;12.20;99.90;;;;;;5152901;27;20042;-80
2022/10/14 09:12:38;;;;;;;54.47;22.75;;;12.30;99.90;;;;;;5136709;27;20117;-81
2022/10/14 09:15:21;;;;;;;64.13;23.58;;;12.40;99.90;;;;;;5136054;27;20139;-81
2022/10/14 09:17:49;;;;;;;61.17;23.08;;;12.30;99.90;;;;;;5135769;27;20129;-80
2022/10/14 09:20:17;;;;;;;48.20;20.23;;;12.30;99.90;;;;;;5134770;27;20122;-80
2022/10/14 09:22:46;;;;;;;51.38;19.92;;;12.30;99.90;;;;;;5152664;27;20123;-81
2022/10/14 09:25:14;;;;;;;56.10;20.70;;;12.30;99.90;;;;;;5153485;27;20568;-80
2022/10/14 09:27:41;;;;;;;62.45;21.13;;;12.30;99.90;;;;;;5132763;27;20091;-80
2022/10/14 09:30:16;;;;;;;47.53;20.05;;;12.30;99.90;;;;;;5135303;27;20034;-81
2022/10/14 09:32:48;;;;;;;62.60;20.90;;;12.40;99.90;;;;;;5153708;27;20073;-80
2022/10/14 09:35:39;;;;;;;70.03;21.60;;;12.40;99.90;;;;;;5153232;27;20047;-81
2022/10/14 09:38:06;;;;;;;49.90;18.33;;;12.40;99.90;;;;;;5135919;27;20118;-81
2022/10/14 09:40:44;;;;;;;51.38;18.77;;;12.40;99.90;;;;;;5148991;27;20058;-82
2022/10/14 09:43:09;;;;;;;55.35;17.83;;;12.40;99.90;;;;;;5151914;27;20502;-81
2022/10/14 09:46:01;;;;;;;48.33;17.52;;;12.50;99.90;;;;;;5122930;27;20043;-80
2022/10/14 09:48:38;;;;;;;38.88;17.05;;;12.50;99.90;;;;;;5129936;27;20038;-80
2022/10/14 09:51:19;;;;;;;43.72;18.00;;;12.50;99.90;;;;;;5127552;27;20038;-79
2022/10/14 09:54:03;;;;;;;41.83;16.83;;;12.60;99.90;;;;;;5111291;27;20038;-80
2022/10/14 09:56:33;;;;;;;36.30;17.00;;;12.60;99.90;;;;;;5123623;27;20432;-80
2022/10/14 09:59:00;;;;;;;41.40;18.42;;;12.60;99.90;;;;;;5112650;27;20168;-80
2022/10/14 10:01:39;;;;;;;42.95;17.55;;;12.60;99.90;;;;;;5131725;27;20039;-80
2022/10/14 10:04:40;;;;;;;42.67;18.92;;;12.70;99.90;;;;;;5133088;27;20133;-81
2022/10/14 10:07:25;;;;;;;45.15;18.85;;;12.70;99.90;;;;;;5121838;27;20039;-80
2022/10/14 10:10:04;;;;;;;42.92;18.55;;;12.70;99.90;;;;;;5133909;27;20050;-80
2022/10/14 10:12:34;;;;;;;44.75;18.50;;;12.70;99.90;;;;;;5124700;27;20027;-80
2022/10/14 10:15:06;;;;;;;40.92;18.88;;;12.70;99.90;;;;;;5150244;27;20071;-80
2022/10/14 10:17:39;;;;;;;49.38;19.65;;;12.80;99.90;;;;;;5142695;27;20498;-80
2022/10/14 10:20:15;;;;;;;52.55;19.52;;;12.80;99.90;;;;;;5110204;27;20042;-80
2022/10/14 10:22:42;;;;;;;50.42;19.58;;;12.80;99.90;;;;;;5128640;27;20035;-80
2022/10/14 10:25:07;;;;;;;47.05;19.20;;;12.80;99.90;;;;;;5106984;27;20035;-80
2022/10/14 10:27:44;;;;;;;48.70;19.38;;;12.80;99.90;;;;;;5144432;27;20642;-80
2022/10/14 10:30:28;;;;;;;68.47;22.02;;;12.90;99.90;;;;;;5142004;27;20042;-81
2022/10/14 10:33:15;;;;;;;56.70;20.80;;;12.90;99.90;;;;;;5126372;27;20030;-81
2022/10/14 10:36:00;;;;;;;51.92;20.42;;;12.90;99.90;;;;;;5153891;27;20371;-80
2022/10/14 10:38:45;;;;;;;53.42;20.92;;;13.00;99.90;;;;;;5124741;27;20475;-81
2022/10/14 10:41:23;;;;;;;60.33;21.85;;;13.00;99.90;;;;;;5127228;27;20043;-79
2022/10/14 10:43:56;;;;;;;60.22;22.27;;;13.10;99.90;;;;;;5130415;27;20052;-79
2022/10/14 10:46:44;;;;;;;62.20;23.17;;;13.10;99.90;;;;;;5152129;27;20449;-79
2022/10/14 10:49:48;;;;;;;60.70;22.58;;;13.20;99.90;;;;;;5158435;27;20122;-79
2022/10/14 10:52:35;;;;;;;54.33;22.65;;;13.30;99.90;;;;;;5090491;28;20048;-81
2022/10/14 10:55:29;;;;;;;56.97;23.08;;;13.30;99.90;;;;;;5095802;28;20044;-80
2022/10/14 10:58:06;;;;;;;52.17;22.63;;;13.40;99.90;;;;;;5141539;27;20383;-80
2022/10/14 11:00:44;;;;;;;58.53;23.20;;;13.40;99.90;;;;;;5131201;27;20439;-81
2022/10/14 11:03:42;;;;;;;60.70;23.95;;;13.50;99.90;;;;;;5134943;27;20055;-81
2022/10/14 11:12:27;;;;;;;56.53;21.98;;;13.60;99.90;;;;;;5149056;27;20047;-80
2022/10/14 11:15:07;;;;;;;53.40;21.67;;;13.60;99.90;;;;;;5133512;27;20053;-80
2022/10/14 11:17:56;;;;;;;56.55;22.42;;;13.60;99.90;;;;;;5134892;27;20054;-80
2022/10/14 11:20:28;;;;;;;54.75;21.63;;;13.60;99.90;;;;;;5143459;27;20051;-80
2022/10/14 11:23:27;;;;;;;46.30;20.88;;;13.60;99.90;;;;;;5142695;27;20034;-80
2022/10/14 11:26:29;;;;;;;46.70;20.77;;;13.70;99.90;;;;;;5155021;27;20119;-80
2022/10/14 11:28:55;;;;;;;42.30;18.70;;;13.70;99.90;;;;;;5111899;27;20077;-80
2022/10/14 11:31:33;;;;;;;41.78;19.15;;;13.70;99.90;;;;;;5148545;27;20389;-80
2022/10/14 11:34:37;;;;;;;37.05;18.40;;;13.80;99.90;;;;;;5134253;27;21460;-80
2022/10/14 11:37:17;;;;;;;31.45;16.73;;;13.80;99.90;;;;;;5140446;27;20471;-80
2022/10/14 11:39:49;;;;;;;31.65;16.42;;;13.90;99.90;;;;;;5145349;27;20065;-81
2022/10/14 11:42:37;;;;;;;31.08;15.55;;;13.90;99.90;;;;;;5134927;27;20045;-80
2022/10/14 11:45:06;;;;;;;31.33;15.85;;;13.90;99.90;;;;;;5131565;27;20038;-81
2022/10/14 11:47:37;;;;;;;26.17;14.25;;;13.90;99.90;;;;;;5151390;27;20402;-80
2022/10/14 11:50:20;;;;;;;23.90;13.43;;;14.00;99.90;;;;;;5127859;27;20063;-81
2022/10/14 11:52:52;;;;;;;19.75;12.65;;;14.00;99.90;;;;;;5131065;27;20036;-81
2022/10/14 11:55:28;;;;;;;18.70;12.05;;;14.10;99.90;;;;;;5122123;27;20058;-80
2022/10/14 11:57:59;;;;;;;;;;;14.10;99.90;;;;;;5130444;27;20034;-81
2022/10/14 12:00:28;;;;;;;14.32;9.90;;;14.20;99.90;;;;;;5136576;27;19923;-81
2022/10/14 12:02:54;;;;;;;16.90;9.90;;;14.20;99.90;;;;;;5148387;27;20093;-81
2022/10/14 12:05:36;;;;;;;12.93;9.38;;;14.20;99.90;;;;;;5133682;27;20039;-81
2022/10/14 12:08:24;;;;;;;14.40;10.23;;;14.30;99.90;;;;;;5138144;27;20398;-80
2022/10/14 12:11:08;;;;;;;13.52;10.05;;;14.30;99.90;;;;;;5146091;27;20053;-81
2022/10/14 12:13:43;;;;;;;10.10;8.40;;;14.40;99.90;;;;;;5127889;27;20071;-80
2022/10/14 12:16:14;;;;;;;11.52;8.85;;;14.50;99.90;;;;;;5124972;27;20420;-80
2022/10/14 12:18:41;;;;;;;12.10;9.23;;;14.50;99.90;;;;;;5131806;27;20036;-80
2022/10/14 12:21:10;;;;;;;11.73;9.88;;;14.50;99.90;;;;;;5134100;27;20106;-80
2022/10/14 12:23:46;;;;;;;11.93;9.57;;;14.50;99.90;;;;;;5132984;27;20034;-81
2022/10/14 12:26:26;;;;;;;11.90;9.98;;;14.60;99.90;;;;;;5130852;27;20039;-81
2022/10/14 12:28:52;;;;;;;13.07;9.52;;;14.60;99.90;;;;;;5128824;27;20539;-81
2022/10/14 12:31:34;;;;;;;11.95;10.38;;;14.60;99.90;;;;;;5135582;27;20394;-80
2022/10/14 12:34:15;;;;;;;12.63;10.20;;;14.60;99.90;;;;;;5151435;27;20042;-81
2022/10/14 12:36:46;;;;;;;13.60;10.40;;;14.60;99.90;;;;;;5144638;27;20039;-80
2022/10/14 12:39:18;;;;;;;15.70;11.32;;;14.60;99.90;;;;;;5150305;27;20098;-80
2022/10/14 12:42:09;;;;;;;13.85;11.48;;;14.60;99.90;;;;;;5129407;27;20122;-80
2022/10/14 12:44:50;;;;;;;11.85;10.65;;;14.60;99.90;;;;;;5128406;27;20416;-79
2022/10/14 12:47:31;;;;;;;12.85;10.85;;;14.50;99.90;;;;;;5146350;27;20065;-80
2022/10/14 12:50:01;;;;;;;12.75;11.38;;;14.50;99.90;;;;;;5129811;27;20398;-80